Kezdőlap
METAR-TAF:

METAR-TAF

Repülőterek :

Atlantic, Iowa, Amerikai Egyesült Államok

földrajzi szélesség: 41-24N, földrajzi hosszúság: 095-03W, magasság: 360 m

Jelenlegi meteorológiai megfigyelések

A jelentés 33 perccel ezelõtt készült, 07:55 UTC
Déli szél 3 kt
Hőmérséklet -6°C
Páratartalom 93%
Légköri nyomás 1020 hPa
Látótávolság: 16.1 km
Kevés felhő 7500 lábon
Borult 9000 lábon

METAR: KAIO 270755Z AUTO 19003KT 10SM FEW075 OVC090 M06/M07 A3012 RMK AO2

Idő: 02:28 (08:28 UTC)


TAF: hiányzik

Meteorológiai megfigyelések és előrejelzések több, mint 4000 repülőtéren (METAR és TAF jelentéseket).

A térképen piros és sárga pontok jelzik az elérhető meteorológiai állomásokat.

Mozgassa az egeret a pont fölött, hogy megjelenjen az állomás neve.

Azután kattintson az időjárási megfigyelések és előrejelzések megtekintéséhez.

A térkép megváltoztatása: kattintson a fekete keresztel jelölt zöld gombra ráközelítéshez, a vonallal jelölt zöld gombra távolításhoz, vagy a zöld nyilakra a szomszédos térképek eléréséhez.


METAR-TAF: